sensor_id;sensor_type;location;lat;lon;timestamp;pressure;altitude;pressure_sealevel;temperature;humidity
39729;BME280;25402;42.004;23.088;2022-08-21T00:00:08;96856.53;;;17.18;56.38
39729;BME280;25402;42.004;23.088;2022-08-21T00:02:36;96863.66;;;17.19;56.19
39729;BME280;25402;42.004;23.088;2022-08-21T00:05:03;96849.41;;;17.17;56.34
39729;BME280;25402;42.004;23.088;2022-08-21T00:07:31;96849.28;;;17.24;55.75
39729;BME280;25402;42.004;23.088;2022-08-21T00:09:58;96850.50;;;17.16;55.81
39729;BME280;25402;42.004;23.088;2022-08-21T00:12:25;96863.19;;;17.22;55.92
39729;BME280;25402;42.004;23.088;2022-08-21T00:14:54;96879.09;;;17.25;56.15
39729;BME280;25402;42.004;23.088;2022-08-21T00:17:21;96881.84;;;17.25;55.96
39729;BME280;25402;42.004;23.088;2022-08-21T00:19:48;96884.09;;;17.28;55.83
39729;BME280;25402;42.004;23.088;2022-08-21T00:22:15;96895.59;;;17.30;56.08
39729;BME280;25402;42.004;23.088;2022-08-21T00:24:42;96897.50;;;17.30;56.44
39729;BME280;25402;42.004;23.088;2022-08-21T00:27:09;96905.19;;;17.33;56.88
39729;BME280;25402;42.004;23.088;2022-08-21T00:29:36;96902.47;;;17.33;56.79
39729;BME280;25402;42.004;23.088;2022-08-21T00:32:05;96894.50;;;17.31;56.98
39729;BME280;25402;42.004;23.088;2022-08-21T00:34:32;96909.69;;;17.39;57.07
39729;BME280;25402;42.004;23.088;2022-08-21T00:36:59;96904.47;;;17.38;57.05
39729;BME280;25402;42.004;23.088;2022-08-21T00:39:37;96903.41;;;17.39;57.18
39729;BME280;25402;42.004;23.088;2022-08-21T00:42:04;96883.09;;;17.34;57.22
39729;BME280;25402;42.004;23.088;2022-08-21T00:44:31;96879.53;;;17.34;56.96
39729;BME280;25402;42.004;23.088;2022-08-21T00:46:58;96893.06;;;17.41;56.84
39729;BME280;25402;42.004;23.088;2022-08-21T00:49:27;96886.75;;;17.40;56.78
39729;BME280;25402;42.004;23.088;2022-08-21T00:51:57;96836.09;;;17.21;56.28
39729;BME280;25402;42.004;23.088;2022-08-21T00:54:28;96861.53;;;17.21;56.23
39729;BME280;25402;42.004;23.088;2022-08-21T00:56:59;96861.63;;;16.98;56.80
39729;BME280;25402;42.004;23.088;2022-08-21T00:59:28;96869.22;;;16.96;56.67
39729;BME280;25402;42.004;23.088;2022-08-21T01:01:57;96877.78;;;16.88;56.75
39729;BME280;25402;42.004;23.088;2022-08-21T01:04:24;96860.78;;;16.97;56.63
39729;BME280;25402;42.004;23.088;2022-08-21T01:06:53;96855.63;;;17.01;56.15
39729;BME280;25402;42.004;23.088;2022-08-21T01:09:20;96853.34;;;17.10;55.79
39729;BME280;25402;42.004;23.088;2022-08-21T01:11:47;96859.31;;;17.07;55.73
39729;BME280;25402;42.004;23.088;2022-08-21T01:14:15;96847.44;;;17.01;55.71
39729;BME280;25402;42.004;23.088;2022-08-21T01:16:45;96853.16;;;16.99;55.82
39729;BME280;25402;42.004;23.088;2022-08-21T01:19:13;96854.31;;;17.03;55.50
39729;BME280;25402;42.004;23.088;2022-08-21T01:21:43;96854.91;;;17.06;55.07
39729;BME280;25402;42.004;23.088;2022-08-21T01:24:11;96848.25;;;17.01;54.86
39729;BME280;25402;42.004;23.088;2022-08-21T01:26:38;96847.19;;;17.02;54.64
39729;BME280;25402;42.004;23.088;2022-08-21T01:29:11;96847.53;;;17.06;54.64
39729;BME280;25402;42.004;23.088;2022-08-21T01:31:39;96831.63;;;17.03;54.59
39729;BME280;25402;42.004;23.088;2022-08-21T01:34:07;96829.13;;;17.01;54.48
39729;BME280;25402;42.004;23.088;2022-08-21T01:36:35;96828.81;;;16.98;54.35
39729;BME280;25402;42.004;23.088;2022-08-21T01:39:04;96820.53;;;16.93;55.07
39729;BME280;25402;42.004;23.088;2022-08-21T01:41:32;96827.25;;;17.02;54.99
39729;BME280;25402;42.004;23.088;2022-08-21T01:43:59;96789.69;;;16.81;55.57
39729;BME280;25402;42.004;23.088;2022-08-21T01:46:26;96826.16;;;17.03;55.67
39729;BME280;25402;42.004;23.088;2022-08-21T01:48:53;96827.69;;;17.11;55.65
39729;BME280;25402;42.004;23.088;2022-08-21T01:51:20;96828.53;;;17.11;56.25
39729;BME280;25402;42.004;23.088;2022-08-21T01:53:47;96813.69;;;17.07;56.56
39729;BME280;25402;42.004;23.088;2022-08-21T01:56:17;96817.59;;;17.11;56.81
39729;BME280;25402;42.004;23.088;2022-08-21T01:58:46;96814.97;;;17.16;56.46
39729;BME280;25402;42.004;23.088;2022-08-21T02:01:14;96813.66;;;17.19;56.45
39729;BME280;25402;42.004;23.088;2022-08-21T02:03:41;96810.66;;;17.20;56.45
39729;BME280;25402;42.004;23.088;2022-08-21T02:06:13;96801.41;;;17.21;56.66
39729;BME280;25402;42.004;23.088;2022-08-21T02:08:43;96812.81;;;17.18;56.64
39729;BME280;25402;42.004;23.088;2022-08-21T02:11:10;96813.41;;;17.20;57.00
39729;BME280;25402;42.004;23.088;2022-08-21T02:13:39;96808.53;;;17.22;56.88
39729;BME280;25402;42.004;23.088;2022-08-21T02:16:06;96800.22;;;17.17;56.66
39729;BME280;25402;42.004;23.088;2022-08-21T02:18:33;96790.38;;;17.16;56.51
39729;BME280;25402;42.004;23.088;2022-08-21T02:21:01;96804.97;;;17.22;56.57
39729;BME280;25402;42.004;23.088;2022-08-21T02:23:28;96808.53;;;17.22;56.52
39729;BME280;25402;42.004;23.088;2022-08-21T02:25:56;96807.69;;;17.22;56.33
39729;BME280;25402;42.004;23.088;2022-08-21T02:28:23;96790.88;;;17.13;56.49
39729;BME280;25402;42.004;23.088;2022-08-21T02:30:53;96811.91;;;17.13;56.00
39729;BME280;25402;42.004;23.088;2022-08-21T02:33:21;96820.31;;;17.11;55.50
39729;BME280;25402;42.004;23.088;2022-08-21T02:35:49;96809.78;;;17.03;55.46
39729;BME280;25402;42.004;23.088;2022-08-21T02:38:19;96810.94;;;17.07;55.18
39729;BME280;25402;42.004;23.088;2022-08-21T02:40:48;96811.41;;;17.16;55.19
39729;BME280;25402;42.004;23.088;2022-08-21T02:43:16;96816.31;;;17.14;54.83
39729;BME280;25402;42.004;23.088;2022-08-21T02:45:44;96813.34;;;17.15;55.22
39729;BME280;25402;42.004;23.088;2022-08-21T02:48:17;96805.69;;;17.17;54.98
39729;BME280;25402;42.004;23.088;2022-08-21T02:50:47;96790.25;;;17.11;54.92
39729;BME280;25402;42.004;23.088;2022-08-21T02:53:15;96793.44;;;17.20;54.52
39729;BME280;25402;42.004;23.088;2022-08-21T02:55:43;96799.38;;;17.17;54.46
39729;BME280;25402;42.004;23.088;2022-08-21T02:58:11;96793.94;;;17.17;54.64
39729;BME280;25402;42.004;23.088;2022-08-21T03:00:39;96794.19;;;17.15;54.52
39729;BME280;25402;42.004;23.088;2022-08-21T03:03:06;96789.22;;;17.12;54.25
39729;BME280;25402;42.004;23.088;2022-08-21T03:05:36;96801.25;;;16.99;54.30
39729;BME280;25402;42.004;23.088;2022-08-21T03:08:06;96810.78;;;16.97;54.15
39729;BME280;25402;42.004;23.088;2022-08-21T03:10:35;96808.28;;;16.95;54.20
39729;BME280;25402;42.004;23.088;2022-08-21T03:13:03;96799.63;;;16.87;54.11
39729;BME280;25402;42.004;23.088;2022-08-21T03:15:30;96814.94;;;16.88;53.90
39729;BME280;25402;42.004;23.088;2022-08-21T03:17:57;96808.91;;;16.86;54.28
39729;BME280;25402;42.004;23.088;2022-08-21T03:20:27;96813.88;;;16.89;54.28
39729;BME280;25402;42.004;23.088;2022-08-21T03:22:56;96819.69;;;16.92;54.87
39729;BME280;25402;42.004;23.088;2022-08-21T03:25:25;96819.34;;;16.89;55.18
39729;BME280;25402;42.004;23.088;2022-08-21T03:27:52;96828.84;;;16.86;55.80
39729;BME280;25402;42.004;23.088;2022-08-21T03:30:20;96815.34;;;16.80;55.50
39729;BME280;25402;42.004;23.088;2022-08-21T03:32:48;96828.03;;;16.86;55.65
39729;BME280;25402;42.004;23.088;2022-08-21T03:35:17;96840.25;;;16.95;56.04
39729;BME280;25402;42.004;23.088;2022-08-21T03:37:44;96842.72;;;16.96;56.17
39729;BME280;25402;42.004;23.088;2022-08-21T03:40:16;96834.84;;;17.00;55.92
39729;BME280;25402;42.004;23.088;2022-08-21T03:42:43;96836.78;;;16.99;56.34
39729;BME280;25402;42.004;23.088;2022-08-21T03:45:13;96836.50;;;17.01;56.23
39729;BME280;25402;42.004;23.088;2022-08-21T03:47:51;96844.56;;;17.08;56.12
39729;BME280;25402;42.004;23.088;2022-08-21T03:50:19;96845.41;;;17.08;55.89
39729;BME280;25402;42.004;23.088;2022-08-21T03:52:46;96847.53;;;17.06;55.85
39729;BME280;25402;42.004;23.088;2022-08-21T03:55:14;96850.03;;;17.08;55.85
39729;BME280;25402;42.004;23.088;2022-08-21T03:57:41;96820.41;;;16.88;56.27
39729;BME280;25402;42.004;23.088;2022-08-21T04:00:11;96840.91;;;17.02;56.24
39729;BME280;25402;42.004;23.088;2022-08-21T04:02:39;96834.84;;;17.00;56.08
39729;BME280;25402;42.004;23.088;2022-08-21T04:05:07;96829.13;;;17.01;56.30
39729;BME280;25402;42.004;23.088;2022-08-21T04:07:34;96848.13;;;17.08;55.89
39729;BME280;25402;42.004;23.088;2022-08-21T04:10:02;96850.88;;;17.08;56.21
39729;BME280;25402;42.004;23.088;2022-08-21T04:12:30;96823.06;;;16.83;56.07
39729;BME280;25402;42.004;23.088;2022-08-21T04:14:58;96840.25;;;16.95;56.47
39729;BME280;25402;42.004;23.088;2022-08-21T04:17:27;96863.47;;;17.09;56.06
39729;BME280;25402;42.004;23.088;2022-08-21T04:19:54;96862.63;;;17.09;55.92
39729;BME280;25402;42.004;23.088;2022-08-21T04:22:21;96856.34;;;17.08;55.87
39729;BME280;25402;42.004;23.088;2022-08-21T04:24:48;96851.69;;;17.09;56.12
39729;BME280;25402;42.004;23.088;2022-08-21T04:27:16;96855.00;;;17.11;56.17
39729;BME280;25402;42.004;23.088;2022-08-21T04:29:44;96856.34;;;17.08;56.00
39729;BME280;25402;42.004;23.088;2022-08-21T04:32:11;96861.78;;;17.08;56.06
39729;BME280;25402;42.004;23.088;2022-08-21T04:34:38;96871.19;;;17.12;56.19
39729;BME280;25402;42.004;23.088;2022-08-21T04:37:05;96874.75;;;17.13;56.27
39729;BME280;25402;42.004;23.088;2022-08-21T04:39:32;96880.00;;;17.14;56.34
39729;BME280;25402;42.004;23.088;2022-08-21T04:41:59;96882.22;;;17.17;56.34
39729;BME280;25402;42.004;23.088;2022-08-21T04:44:26;96879.59;;;17.22;55.78
39729;BME280;25402;42.004;23.088;2022-08-21T04:46:54;96886.81;;;17.28;55.80
39729;BME280;25402;42.004;23.088;2022-08-21T04:49:21;96876.03;;;17.22;55.64
39729;BME280;25402;42.004;23.088;2022-08-21T04:51:49;96894.84;;;17.35;55.93
39729;BME280;25402;42.004;23.088;2022-08-21T04:54:18;96891.03;;;17.36;55.72
39729;BME280;25402;42.004;23.088;2022-08-21T04:56:47;96890.81;;;17.38;55.37
39729;BME280;25402;42.004;23.088;2022-08-21T04:59:21;96882.00;;;17.35;55.62
39729;BME280;25402;42.004;23.088;2022-08-21T05:01:49;96891.88;;;17.36;55.36
39729;BME280;25402;42.004;23.088;2022-08-21T05:04:23;96883.19;;;17.40;55.30
39729;BME280;25402;42.004;23.088;2022-08-21T05:06:53;96888.66;;;17.40;55.13
39729;BME280;25402;42.004;23.088;2022-08-21T05:09:21;96885.91;;;17.40;55.35
39729;BME280;25402;42.004;23.088;2022-08-21T05:11:50;96884.38;;;17.44;55.09
39729;BME280;25402;42.004;23.088;2022-08-21T05:14:18;96875.81;;;17.40;55.10
39729;BME280;25402;42.004;23.088;2022-08-21T05:16:46;96893.16;;;17.46;54.84
39729;BME280;25402;42.004;23.088;2022-08-21T05:19:13;96891.66;;;17.55;55.02
39729;BME280;25402;42.004;23.088;2022-08-21T05:21:43;96904.38;;;17.61;54.78
39729;BME280;25402;42.004;23.088;2022-08-21T05:24:11;96894.00;;;17.63;54.79
39729;BME280;25402;42.004;23.088;2022-08-21T05:26:38;96902.88;;;17.70;54.85
39729;BME280;25402;42.004;23.088;2022-08-21T05:29:08;96890.94;;;17.76;55.01
39729;BME280;25402;42.004;23.088;2022-08-21T05:31:36;96876.94;;;17.73;54.77
39729;BME280;25402;42.004;23.088;2022-08-21T05:34:03;96879.69;;;17.89;54.62
39729;BME280;25402;42.004;23.088;2022-08-21T05:36:30;96892.38;;;17.95;54.36
39729;BME280;25402;42.004;23.088;2022-08-21T05:38:59;96883.16;;;18.01;53.59
39729;BME280;25402;42.004;23.088;2022-08-21T05:41:26;96881.94;;;18.09;53.61
39729;BME280;25402;42.004;23.088;2022-08-21T05:43:53;96889.06;;;18.10;53.36
39729;BME280;25402;42.004;23.088;2022-08-21T05:46:21;96871.28;;;18.13;53.24
39729;BME280;25402;42.004;23.088;2022-08-21T05:48:48;96880.41;;;18.18;53.28
39729;BME280;25402;42.004;23.088;2022-08-21T05:51:16;96875.69;;;18.14;53.46
39729;BME280;25402;42.004;23.088;2022-08-21T05:53:43;96879.25;;;18.14;53.63
39729;BME280;25402;42.004;23.088;2022-08-21T05:56:12;96874.94;;;18.18;53.36
39729;BME280;25402;42.004;23.088;2022-08-21T05:58:40;96881.84;;;18.21;52.98
39729;BME280;25402;42.004;23.088;2022-08-21T06:01:08;96885.06;;;18.18;52.74
39729;BME280;25402;42.004;23.088;2022-08-21T06:03:37;96885.66;;;18.20;53.02
39729;BME280;25402;42.004;23.088;2022-08-21T06:06:05;96873.03;;;18.19;52.78
39729;BME280;25402;42.004;23.088;2022-08-21T06:08:33;96871.47;;;18.23;52.95
39729;BME280;25402;42.004;23.088;2022-08-21T06:11:01;96874.19;;;18.23;52.73
39729;BME280;25402;42.004;23.088;2022-08-21T06:13:30;96861.66;;;18.27;52.63
39729;BME280;25402;42.004;23.088;2022-08-21T06:16:02;96858.34;;;18.25;52.97
39729;BME280;25402;42.004;23.088;2022-08-21T06:18:30;96850.78;;;18.32;52.76
39729;BME280;25402;42.004;23.088;2022-08-21T06:20:57;96852.44;;;18.33;52.58
39729;BME280;25402;42.004;23.088;2022-08-21T06:23:24;96856.00;;;18.33;52.55
39729;BME280;25402;42.004;23.088;2022-08-21T06:25:51;96851.44;;;18.39;52.33
39729;BME280;25402;42.004;23.088;2022-08-21T06:28:18;96838.81;;;18.38;51.93
39729;BME280;25402;42.004;23.088;2022-08-21T06:30:46;96846.25;;;18.42;51.53
39729;BME280;25402;42.004;23.088;2022-08-21T06:33:13;96871.97;;;18.58;50.96
39729;BME280;25402;42.004;23.088;2022-08-21T06:35:40;96866.56;;;18.63;51.13
39729;BME280;25402;42.004;23.088;2022-08-21T06:38:08;96861.75;;;18.70;51.17
39729;BME280;25402;42.004;23.088;2022-08-21T06:40:35;96875.72;;;18.74;51.51
39729;BME280;25402;42.004;23.088;2022-08-21T06:43:06;96877.78;;;18.84;51.71
39729;BME280;25402;42.004;23.088;2022-08-21T06:45:34;96874.84;;;18.90;51.78
39729;BME280;25402;42.004;23.088;2022-08-21T06:48:03;96879.63;;;19.00;50.91
39729;BME280;25402;42.004;23.088;2022-08-21T06:50:31;96880.91;;;19.14;50.76
39729;BME280;25402;42.004;23.088;2022-08-21T06:52:59;96875.50;;;19.19;50.27
39729;BME280;25402;42.004;23.088;2022-08-21T06:55:26;96878.34;;;19.29;49.99
39729;BME280;25402;42.004;23.088;2022-08-21T06:57:54;96875.81;;;19.50;49.26
39729;BME280;25402;42.004;23.088;2022-08-21T07:00:21;96851.22;;;19.60;48.53
39729;BME280;25402;42.004;23.088;2022-08-21T07:02:48;96863.50;;;19.84;47.56
39729;BME280;25402;42.004;23.088;2022-08-21T07:05:16;96864.44;;;19.95;47.20
39729;BME280;25402;42.004;23.088;2022-08-21T07:07:44;96854.31;;;20.00;47.03
39729;BME280;25402;42.004;23.088;2022-08-21T07:10:11;96865.56;;;19.99;46.82
39729;BME280;25402;42.004;23.088;2022-08-21T07:12:38;96865.03;;;20.02;46.91
39729;BME280;25402;42.004;23.088;2022-08-21T07:15:06;96865.34;;;20.05;47.45
39729;BME280;25402;42.004;23.088;2022-08-21T07:17:33;96867.88;;;20.12;47.13
39729;BME280;25402;42.004;23.088;2022-08-21T07:20:00;96862.38;;;20.12;46.90
39729;BME280;25402;42.004;23.088;2022-08-21T07:22:29;96857.97;;;20.11;47.06
39729;BME280;25402;42.004;23.088;2022-08-21T07:24:56;96854.66;;;20.09;47.34
39729;BME280;25402;42.004;23.088;2022-08-21T07:27:24;96851.59;;;20.05;47.34
39729;BME280;25402;42.004;23.088;2022-08-21T07:29:51;96846.91;;;20.01;47.50
39729;BME280;25402;42.004;23.088;2022-08-21T07:32:18;96845.47;;;19.93;47.34
39729;BME280;25402;42.004;23.088;2022-08-21T07:34:45;96850.34;;;19.86;47.20
39729;BME280;25402;42.004;23.088;2022-08-21T07:37:12;96842.38;;;19.80;47.30
39729;BME280;25402;42.004;23.088;2022-08-21T07:39:40;96842.31;;;19.74;47.76
39729;BME280;25402;42.004;23.088;2022-08-21T07:42:07;96837.00;;;19.68;47.38
39729;BME280;25402;42.004;23.088;2022-08-21T07:44:35;96834.25;;;19.68;47.72
39729;BME280;25402;42.004;23.088;2022-08-21T07:47:02;96838.44;;;19.70;48.13
39729;BME280;25402;42.004;23.088;2022-08-21T07:49:30;96839.00;;;19.72;48.89
39729;BME280;25402;42.004;23.088;2022-08-21T07:51:57;96838.13;;;19.67;49.66
39729;BME280;25402;42.004;23.088;2022-08-21T07:54:24;96834.34;;;19.73;49.69
39729;BME280;25402;42.004;23.088;2022-08-21T07:56:52;96830.50;;;19.74;49.76
39729;BME280;25402;42.004;23.088;2022-08-21T07:59:19;96831.69;;;19.83;49.69
39729;BME280;25402;42.004;23.088;2022-08-21T08:01:46;96805.56;;;19.75;50.02
39729;BME280;25402;42.004;23.088;2022-08-21T08:04:13;96816.84;;;19.84;50.16
39729;BME280;25402;42.004;23.088;2022-08-21T08:06:41;96816.59;;;19.86;50.12
39729;BME280;25402;42.004;23.088;2022-08-21T08:09:08;96819.94;;;19.93;49.70
39729;BME280;25402;42.004;23.088;2022-08-21T08:11:36;96808.78;;;20.04;49.53
39729;BME280;25402;42.004;23.088;2022-08-21T08:14:06;96806.09;;;20.15;49.31
39729;BME280;25402;42.004;23.088;2022-08-21T08:16:33;96814.41;;;20.25;49.03
39729;BME280;25402;42.004;23.088;2022-08-21T08:19:00;96816.75;;;20.53;47.76
39729;BME280;25402;42.004;23.088;2022-08-21T08:21:28;96805.88;;;20.73;48.16
39729;BME280;25402;42.004;23.088;2022-08-21T08:23:55;96823.84;;;21.01;47.83
39729;BME280;25402;42.004;23.088;2022-08-21T08:26:22;96820.59;;;21.30;47.12
39729;BME280;25402;42.004;23.088;2022-08-21T08:28:49;96809.41;;;21.67;45.63
39729;BME280;25402;42.004;23.088;2022-08-21T08:31:18;96815.72;;;21.98;44.39
39729;BME280;25402;42.004;23.088;2022-08-21T08:33:45;96798.38;;;22.07;43.74
39729;BME280;25402;42.004;23.088;2022-08-21T08:36:13;96801.59;;;22.40;43.11
39729;BME280;25402;42.004;23.088;2022-08-21T08:38:40;96810.34;;;22.67;41.33
39729;BME280;25402;42.004;23.088;2022-08-21T08:41:11;96809.16;;;22.83;41.27
39729;BME280;25402;42.004;23.088;2022-08-21T08:43:40;96807.81;;;22.81;40.73
39729;BME280;25402;42.004;23.088;2022-08-21T08:46:13;96796.47;;;22.87;40.44
39729;BME280;25402;42.004;23.088;2022-08-21T08:48:47;96790.44;;;22.80;40.67
39729;BME280;25402;42.004;23.088;2022-08-21T08:51:22;96801.34;;;23.01;40.34
39729;BME280;25402;42.004;23.088;2022-08-21T08:53:52;96799.66;;;23.10;40.21
39729;BME280;25402;42.004;23.088;2022-08-21T08:56:26;96801.84;;;23.13;41.27
39729;BME280;25402;42.004;23.088;2022-08-21T08:58:56;96784.19;;;23.14;41.71
39729;BME280;25402;42.004;23.088;2022-08-21T09:01:25;96791.88;;;23.27;41.60
39729;BME280;25402;42.004;23.088;2022-08-21T09:03:54;96792.31;;;23.39;41.32
39729;BME280;25402;42.004;23.088;2022-08-21T09:06:34;96791.88;;;23.61;40.26
39729;BME280;25402;42.004;23.088;2022-08-21T09:09:15;96781.34;;;23.63;40.71
39729;BME280;25402;42.004;23.088;2022-08-21T09:11:50;96771.97;;;23.64;40.33
39729;BME280;25402;42.004;23.088;2022-08-21T09:14:27;96765.78;;;23.77;40.72
39729;BME280;25402;42.004;23.088;2022-08-21T09:17:08;96771.41;;;23.62;40.16
39729;BME280;25402;42.004;23.088;2022-08-21T09:19:49;96766.78;;;23.57;40.71
39729;BME280;25402;42.004;23.088;2022-08-21T09:22:24;96756.41;;;23.44;40.76
39729;BME280;25402;42.004;23.088;2022-08-21T09:25:03;96758.06;;;23.45;40.65
39729;BME280;25402;42.004;23.088;2022-08-21T09:27:35;96749.84;;;23.35;40.73
39729;BME280;25402;42.004;23.088;2022-08-21T09:30:04;96750.22;;;23.23;40.58
39729;BME280;25402;42.004;23.088;2022-08-21T09:32:34;96748.25;;;23.29;41.12
39729;BME280;25402;42.004;23.088;2022-08-21T09:35:08;96745.28;;;23.20;41.58
39729;BME280;25402;42.004;23.088;2022-08-21T09:37:49;96740.06;;;23.14;41.56
39729;BME280;25402;42.004;23.088;2022-08-21T09:40:26;96742.88;;;22.99;42.16
39729;BME280;25402;42.004;23.088;2022-08-21T09:42:57;96744.91;;;22.83;42.65
39729;BME280;25402;42.004;23.088;2022-08-21T09:45:25;96745.59;;;22.65;42.49
39729;BME280;25402;42.004;23.088;2022-08-21T09:47:53;96735.44;;;22.50;42.71
39729;BME280;25402;42.004;23.088;2022-08-21T09:50:28;96732.22;;;22.28;43.19
39729;BME280;25402;42.004;23.088;2022-08-21T09:52:56;96727.03;;;22.16;44.09
39729;BME280;25402;42.004;23.088;2022-08-21T09:55:32;96738.88;;;22.01;44.47
39729;BME280;25402;42.004;23.088;2022-08-21T09:58:18;96725.69;;;21.73;44.85
39729;BME280;25402;42.004;23.088;2022-08-21T10:00:47;96722.97;;;21.47;45.25
39729;BME280;25402;42.004;23.088;2022-08-21T10:03:22;96725.09;;;20.85;46.94
39729;BME280;25402;42.004;23.088;2022-08-21T10:05:55;96730.81;;;20.68;48.00
39729;BME280;25402;42.004;23.088;2022-08-21T10:08:24;96712.22;;;20.23;48.25
39729;BME280;25402;42.004;23.088;2022-08-21T10:10:55;96722.78;;;20.41;48.49
39729;BME280;25402;42.004;23.088;2022-08-21T10:13:33;96717.28;;;20.51;47.78
39729;BME280;25402;42.004;23.088;2022-08-21T10:16:15;96699.06;;;20.25;48.19
39729;BME280;25402;42.004;23.088;2022-08-21T10:18:46;96704.63;;;20.40;48.66
39729;BME280;25402;42.004;23.088;2022-08-21T10:21:23;96693.63;;;20.35;48.61
39729;BME280;25402;42.004;23.088;2022-08-21T10:23:59;96716.19;;;20.47;48.87
39729;BME280;25402;42.004;23.088;2022-08-21T10:26:39;96716.75;;;20.54;48.52
39729;BME280;25402;42.004;23.088;2022-08-21T10:29:18;96724.47;;;20.62;48.45
39729;BME280;25402;42.004;23.088;2022-08-21T10:32:05;96717.34;;;20.66;48.00
39729;BME280;25402;42.004;23.088;2022-08-21T10:34:44;96715.69;;;20.65;48.44
39729;BME280;25402;42.004;23.088;2022-08-21T10:37:23;96717.91;;;20.68;48.51
39729;BME280;25402;42.004;23.088;2022-08-21T10:40:01;96706.06;;;20.63;48.89
39729;BME280;25402;42.004;23.088;2022-08-21T10:42:37;96711.31;;;20.69;49.17
39729;BME280;25402;42.004;23.088;2022-08-21T10:45:15;96700.88;;;20.71;49.52
39729;BME280;25402;42.004;23.088;2022-08-21T10:47:48;96701.16;;;20.70;49.62
39729;BME280;25402;42.004;23.088;2022-08-21T10:50:21;96704.44;;;20.72;49.75
39729;BME280;25402;42.004;23.088;2022-08-21T10:53:03;96705.25;;;20.67;49.54
39729;BME280;25402;42.004;23.088;2022-08-21T10:55:36;96712.38;;;20.63;49.99
39729;BME280;25402;42.004;23.088;2022-08-21T10:58:08;96719.78;;;20.63;49.64
39729;BME280;25402;42.004;23.088;2022-08-21T11:00:40;96724.47;;;20.57;49.33
39729;BME280;25402;42.004;23.088;2022-08-21T11:03:12;96724.72;;;20.51;48.80
39729;BME280;25402;42.004;23.088;2022-08-21T11:05:43;96721.97;;;20.45;49.23
39729;BME280;25402;42.004;23.088;2022-08-21T11:08:20;96702.09;;;20.28;50.11
39729;BME280;25402;42.004;23.088;2022-08-21T11:10:51;96710.31;;;20.23;50.53
39729;BME280;25402;42.004;23.088;2022-08-21T11:13:25;96704.22;;;20.16;50.65
39729;BME280;25402;42.004;23.088;2022-08-21T11:15:58;96699.53;;;20.06;51.04
39729;BME280;25402;42.004;23.088;2022-08-21T11:18:32;96714.88;;;20.02;51.06
39729;BME280;25402;42.004;23.088;2022-08-21T11:21:12;96728.03;;;19.95;51.16
39729;BME280;25402;42.004;23.088;2022-08-21T11:23:47;96734.00;;;19.82;51.76
39729;BME280;25402;42.004;23.088;2022-08-21T11:26:23;96726.81;;;19.76;51.87
39729;BME280;25402;42.004;23.088;2022-08-21T11:28:55;96720.19;;;19.72;52.00
39729;BME280;25402;42.004;23.088;2022-08-21T11:31:34;96720.66;;;19.64;52.47
39729;BME280;25402;42.004;23.088;2022-08-21T11:34:13;96739.81;;;19.59;52.60
39729;BME280;25402;42.004;23.088;2022-08-21T11:36:51;96749.66;;;19.55;53.15
39729;BME280;25402;42.004;23.088;2022-08-21T11:39:28;96737.28;;;19.52;53.27
39729;BME280;25402;42.004;23.088;2022-08-21T11:42:02;96740.28;;;19.46;53.54
39729;BME280;25402;42.004;23.088;2022-08-21T11:44:49;96746.22;;;19.37;53.29
39729;BME280;25402;42.004;23.088;2022-08-21T11:47:25;96750.88;;;19.32;53.15
39729;BME280;25402;42.004;23.088;2022-08-21T11:50:05;96745.91;;;19.29;53.06
39729;BME280;25402;42.004;23.088;2022-08-21T11:52:40;96743.94;;;19.24;52.94
39729;BME280;25402;42.004;23.088;2022-08-21T11:55:15;96728.53;;;19.18;52.53
39729;BME280;25402;42.004;23.088;2022-08-21T11:57:46;96730.47;;;19.23;52.21
39729;BME280;25402;42.004;23.088;2022-08-21T12:00:20;96724.09;;;19.12;52.66
39729;BME280;25402;42.004;23.088;2022-08-21T12:02:52;96705.50;;;18.92;52.80
39729;BME280;25402;42.004;23.088;2022-08-21T12:05:27;96707.53;;;19.02;52.85
39729;BME280;25402;42.004;23.088;2022-08-21T12:08:05;96710.28;;;19.02;52.77
39729;BME280;25402;42.004;23.088;2022-08-21T12:10:39;96706.66;;;18.96;52.61
39729;BME280;25402;42.004;23.088;2022-08-21T12:13:11;96704.69;;;18.92;52.85
39729;BME280;25402;42.004;23.088;2022-08-21T12:15:48;96704.94;;;18.90;52.71
39729;BME280;25402;42.004;23.088;2022-08-21T12:18:28;96698.03;;;18.83;52.85
39729;BME280;25402;42.004;23.088;2022-08-21T12:21:16;96708.69;;;18.79;53.00
39729;BME280;25402;42.004;23.088;2022-08-21T12:23:47;96725.44;;;18.83;53.60
39729;BME280;25402;42.004;23.088;2022-08-21T12:26:26;96707.84;;;18.79;54.13
39729;BME280;25402;42.004;23.088;2022-08-21T12:29:16;96722.22;;;18.91;54.61
39729;BME280;25402;42.004;23.088;2022-08-21T12:34:37;96728.84;;;18.95;54.34
39729;BME280;25402;42.004;23.088;2022-08-21T12:37:20;96740.03;;;18.88;54.31
39729;BME280;25402;42.004;23.088;2022-08-21T12:39:51;96750.19;;;18.93;54.56
39729;BME280;25402;42.004;23.088;2022-08-21T12:42:23;96748.78;;;18.90;54.77
39729;BME280;25402;42.004;23.088;2022-08-21T12:44:57;96734.81;;;18.92;54.80
39729;BME280;25402;42.004;23.088;2022-08-21T12:47:31;96727.19;;;18.94;55.00
39729;BME280;25402;42.004;23.088;2022-08-21T12:50:04;96724.69;;;18.92;54.63
39729;BME280;25402;42.004;23.088;2022-08-21T12:52:34;96730.75;;;18.94;54.45
39729;BME280;25402;42.004;23.088;2022-08-21T12:55:03;96725.25;;;18.94;54.17
39729;BME280;25402;42.004;23.088;2022-08-21T12:57:31;96717.88;;;18.95;54.08
39729;BME280;25402;42.004;23.088;2022-08-21T13:00:06;96710.47;;;18.95;54.16
39729;BME280;25402;42.004;23.088;2022-08-21T13:02:38;96690.38;;;18.85;54.30
39729;BME280;25402;42.004;23.088;2022-08-21T13:05:07;96683.00;;;18.90;54.31
39729;BME280;25402;42.004;23.088;2022-08-21T13:07:38;96690.22;;;18.96;54.05